sensor_id;sensor_type;location;lat;lon;timestamp;P1;durP1;ratioP1;P2;durP2;ratioP2
1400;SDS011;46518;48.842;8.926;2022-07-23T00:01:28;7.47;;;6.87;;
1400;SDS011;46518;48.842;8.926;2022-07-23T00:03:56;9.87;;;9.07;;
1400;SDS011;46518;48.842;8.926;2022-07-23T00:06:25;8.47;;;7.70;;
1400;SDS011;46518;48.842;8.926;2022-07-23T00:08:53;9.67;;;8.67;;
1400;SDS011;46518;48.842;8.926;2022-07-23T00:11:22;8.03;;;7.07;;
1400;SDS011;46518;48.842;8.926;2022-07-23T00:13:50;8.87;;;8.00;;
1400;SDS011;46518;48.842;8.926;2022-07-23T00:16:20;8.43;;;7.73;;
1400;SDS011;46518;48.842;8.926;2022-07-23T00:18:50;8.70;;;8.00;;
1400;SDS011;46518;48.842;8.926;2022-07-23T00:21:18;8.53;;;7.50;;
1400;SDS011;46518;48.842;8.926;2022-07-23T00:23:47;8.00;;;7.33;;
1400;SDS011;46518;48.842;8.926;2022-07-23T00:26:15;8.03;;;7.40;;
1400;SDS011;46518;48.842;8.926;2022-07-23T00:28:43;9.07;;;8.23;;
1400;SDS011;46518;48.842;8.926;2022-07-23T00:31:12;9.80;;;7.87;;
1400;SDS011;46518;48.842;8.926;2022-07-23T00:33:42;8.83;;;8.03;;
1400;SDS011;46518;48.842;8.926;2022-07-23T00:36:10;10.33;;;8.67;;
1400;SDS011;46518;48.842;8.926;2022-07-23T00:38:39;8.80;;;8.00;;
1400;SDS011;46518;48.842;8.926;2022-07-23T00:41:07;10.40;;;8.60;;
1400;SDS011;46518;48.842;8.926;2022-07-23T00:43:36;8.67;;;7.77;;
1400;SDS011;46518;48.842;8.926;2022-07-23T00:46:04;9.20;;;7.50;;
1400;SDS011;46518;48.842;8.926;2022-07-23T00:48:33;9.20;;;8.40;;
1400;SDS011;46518;48.842;8.926;2022-07-23T00:51:03;8.83;;;8.00;;
1400;SDS011;46518;48.842;8.926;2022-07-23T00:53:31;8.63;;;7.93;;
1400;SDS011;46518;48.842;8.926;2022-07-23T00:55:59;8.30;;;7.60;;
1400;SDS011;46518;48.842;8.926;2022-07-23T00:58:28;9.13;;;8.37;;
1400;SDS011;46518;48.842;8.926;2022-07-23T01:00:56;8.90;;;8.20;;
1400;SDS011;46518;48.842;8.926;2022-07-23T01:03:25;8.23;;;7.53;;
1400;SDS011;46518;48.842;8.926;2022-07-23T01:05:53;9.03;;;7.90;;
1400;SDS011;46518;48.842;8.926;2022-07-23T01:08:26;8.40;;;7.70;;
1400;SDS011;46518;48.842;8.926;2022-07-23T01:10:55;8.67;;;7.90;;
1400;SDS011;46518;48.842;8.926;2022-07-23T01:13:24;8.30;;;7.60;;
1400;SDS011;46518;48.842;8.926;2022-07-23T01:15:52;7.60;;;6.90;;
1400;SDS011;46518;48.842;8.926;2022-07-23T01:18:21;9.13;;;8.23;;
1400;SDS011;46518;48.842;8.926;2022-07-23T01:20:51;8.63;;;7.90;;
1400;SDS011;46518;48.842;8.926;2022-07-23T01:23:21;7.70;;;7.10;;
1400;SDS011;46518;48.842;8.926;2022-07-23T01:25:54;7.90;;;7.20;;
1400;SDS011;46518;48.842;8.926;2022-07-23T01:28:24;8.03;;;7.33;;
1400;SDS011;46518;48.842;8.926;2022-07-23T01:30:54;8.40;;;7.70;;
1400;SDS011;46518;48.842;8.926;2022-07-23T01:33:22;7.80;;;7.30;;
1400;SDS011;46518;48.842;8.926;2022-07-23T01:35:51;7.90;;;7.20;;
1400;SDS011;46518;48.842;8.926;2022-07-23T01:38:24;8.67;;;7.97;;
1400;SDS011;46518;48.842;8.926;2022-07-23T01:40:53;8.80;;;7.90;;
1400;SDS011;46518;48.842;8.926;2022-07-23T01:43:27;7.10;;;6.50;;
1400;SDS011;46518;48.842;8.926;2022-07-23T01:45:55;7.90;;;7.20;;
1400;SDS011;46518;48.842;8.926;2022-07-23T01:48:29;8.43;;;7.67;;
1400;SDS011;46518;48.842;8.926;2022-07-23T01:51:33;8.60;;;8.00;;
1400;SDS011;46518;48.842;8.926;2022-07-23T01:54:07;8.67;;;7.87;;
1400;SDS011;46518;48.842;8.926;2022-07-23T01:56:36;8.90;;;8.10;;
1400;SDS011;46518;48.842;8.926;2022-07-23T01:59:04;10.30;;;9.30;;
1400;SDS011;46518;48.842;8.926;2022-07-23T02:01:33;9.50;;;8.60;;
1400;SDS011;46518;48.842;8.926;2022-07-23T02:04:02;9.20;;;8.40;;
1400;SDS011;46518;48.842;8.926;2022-07-23T02:06:31;8.90;;;8.10;;
1400;SDS011;46518;48.842;8.926;2022-07-23T02:09:00;11.00;;;8.43;;
1400;SDS011;46518;48.842;8.926;2022-07-23T02:11:30;9.50;;;8.70;;
1400;SDS011;46518;48.842;8.926;2022-07-23T02:13:59;10.27;;;9.47;;
1400;SDS011;46518;48.842;8.926;2022-07-23T02:16:27;11.97;;;9.47;;
1400;SDS011;46518;48.842;8.926;2022-07-23T02:19:01;10.20;;;9.10;;
1400;SDS011;46518;48.842;8.926;2022-07-23T02:21:30;9.77;;;8.73;;
1400;SDS011;46518;48.842;8.926;2022-07-23T02:23:58;9.90;;;8.90;;
1400;SDS011;46518;48.842;8.926;2022-07-23T02:26:27;9.10;;;8.20;;
1400;SDS011;46518;48.842;8.926;2022-07-23T02:28:57;10.17;;;9.20;;
1400;SDS011;46518;48.842;8.926;2022-07-23T02:31:26;12.33;;;9.00;;
1400;SDS011;46518;48.842;8.926;2022-07-23T02:33:56;11.30;;;9.43;;
1400;SDS011;46518;48.842;8.926;2022-07-23T02:36:25;9.70;;;8.70;;
1400;SDS011;46518;48.842;8.926;2022-07-23T02:38:55;10.57;;;9.57;;
1400;SDS011;46518;48.842;8.926;2022-07-23T02:41:25;10.30;;;9.30;;
1400;SDS011;46518;48.842;8.926;2022-07-23T02:43:55;11.57;;;10.27;;
1400;SDS011;46518;48.842;8.926;2022-07-23T02:46:25;10.60;;;9.60;;
1400;SDS011;46518;48.842;8.926;2022-07-23T02:48:55;10.43;;;9.60;;
1400;SDS011;46518;48.842;8.926;2022-07-23T02:51:23;10.77;;;9.77;;
1400;SDS011;46518;48.842;8.926;2022-07-23T02:53:56;9.70;;;8.80;;
1400;SDS011;46518;48.842;8.926;2022-07-23T02:56:25;11.17;;;9.97;;
1400;SDS011;46518;48.842;8.926;2022-07-23T02:58:56;9.90;;;9.10;;
1400;SDS011;46518;48.842;8.926;2022-07-23T03:01:26;9.90;;;8.70;;
1400;SDS011;46518;48.842;8.926;2022-07-23T03:03:55;11.27;;;10.00;;
1400;SDS011;46518;48.842;8.926;2022-07-23T03:06:23;10.70;;;9.73;;
1400;SDS011;46518;48.842;8.926;2022-07-23T03:08:52;10.83;;;9.83;;
1400;SDS011;46518;48.842;8.926;2022-07-23T03:11:21;10.23;;;9.23;;
1400;SDS011;46518;48.842;8.926;2022-07-23T03:13:49;8.70;;;8.00;;
1400;SDS011;46518;48.842;8.926;2022-07-23T03:16:19;9.77;;;8.97;;
1400;SDS011;46518;48.842;8.926;2022-07-23T03:18:50;10.57;;;9.67;;
1400;SDS011;46518;48.842;8.926;2022-07-23T03:21:19;10.97;;;9.87;;
1400;SDS011;46518;48.842;8.926;2022-07-23T03:23:47;10.97;;;10.03;;
1400;SDS011;46518;48.842;8.926;2022-07-23T03:26:17;9.50;;;8.70;;
1400;SDS011;46518;48.842;8.926;2022-07-23T03:28:45;10.57;;;9.47;;
1400;SDS011;46518;48.842;8.926;2022-07-23T03:31:14;9.47;;;8.60;;
1400;SDS011;46518;48.842;8.926;2022-07-23T03:33:42;10.57;;;9.60;;
1400;SDS011;46518;48.842;8.926;2022-07-23T03:36:12;9.27;;;8.47;;
1400;SDS011;46518;48.842;8.926;2022-07-23T03:38:44;9.33;;;8.40;;
1400;SDS011;46518;48.842;8.926;2022-07-23T03:41:13;9.00;;;8.10;;
1400;SDS011;46518;48.842;8.926;2022-07-23T03:43:41;9.27;;;8.57;;
1400;SDS011;46518;48.842;8.926;2022-07-23T03:46:11;8.87;;;8.17;;
1400;SDS011;46518;48.842;8.926;2022-07-23T03:48:39;9.93;;;9.03;;
1400;SDS011;46518;48.842;8.926;2022-07-23T03:51:07;9.27;;;8.53;;
1400;SDS011;46518;48.842;8.926;2022-07-23T03:53:38;9.60;;;8.70;;
1400;SDS011;46518;48.842;8.926;2022-07-23T03:56:07;9.10;;;8.40;;
1400;SDS011;46518;48.842;8.926;2022-07-23T03:58:35;9.00;;;8.20;;
1400;SDS011;46518;48.842;8.926;2022-07-23T04:01:03;8.93;;;8.23;;
1400;SDS011;46518;48.842;8.926;2022-07-23T04:03:32;9.43;;;8.63;;
1400;SDS011;46518;48.842;8.926;2022-07-23T04:06:00;8.60;;;7.70;;
1400;SDS011;46518;48.842;8.926;2022-07-23T04:08:29;8.33;;;7.63;;
1400;SDS011;46518;48.842;8.926;2022-07-23T04:11:01;10.10;;;9.30;;
1400;SDS011;46518;48.842;8.926;2022-07-23T04:13:29;9.43;;;8.63;;
1400;SDS011;46518;48.842;8.926;2022-07-23T04:16:00;8.53;;;7.83;;
1400;SDS011;46518;48.842;8.926;2022-07-23T04:18:30;8.33;;;7.53;;
1400;SDS011;46518;48.842;8.926;2022-07-23T04:21:19;9.40;;;8.60;;
1400;SDS011;46518;48.842;8.926;2022-07-23T04:23:48;8.70;;;8.00;;
1400;SDS011;46518;48.842;8.926;2022-07-23T04:26:18;7.90;;;7.20;;
1400;SDS011;46518;48.842;8.926;2022-07-23T04:28:46;8.10;;;7.50;;
1400;SDS011;46518;48.842;8.926;2022-07-23T04:31:15;8.17;;;7.37;;
1400;SDS011;46518;48.842;8.926;2022-07-23T04:33:44;8.03;;;7.43;;
1400;SDS011;46518;48.842;8.926;2022-07-23T04:36:12;9.00;;;8.20;;
1400;SDS011;46518;48.842;8.926;2022-07-23T04:38:41;9.10;;;8.20;;
1400;SDS011;46518;48.842;8.926;2022-07-23T04:41:09;8.40;;;7.70;;
1400;SDS011;46518;48.842;8.926;2022-07-23T04:43:40;8.30;;;7.43;;
1400;SDS011;46518;48.842;8.926;2022-07-23T04:46:08;7.40;;;6.80;;
1400;SDS011;46518;48.842;8.926;2022-07-23T04:48:44;8.23;;;7.57;;
1400;SDS011;46518;48.842;8.926;2022-07-23T04:51:13;7.87;;;7.07;;
1400;SDS011;46518;48.842;8.926;2022-07-23T04:53:41;8.90;;;8.00;;
1400;SDS011;46518;48.842;8.926;2022-07-23T04:56:11;8.80;;;6.90;;
1400;SDS011;46518;48.842;8.926;2022-07-23T04:58:41;7.80;;;7.10;;
1400;SDS011;46518;48.842;8.926;2022-07-23T05:01:10;7.00;;;6.40;;
1400;SDS011;46518;48.842;8.926;2022-07-23T05:03:38;7.10;;;6.60;;
1400;SDS011;46518;48.842;8.926;2022-07-23T05:06:07;7.30;;;6.60;;
1400;SDS011;46518;48.842;8.926;2022-07-23T05:08:36;7.70;;;6.97;;
1400;SDS011;46518;48.842;8.926;2022-07-23T05:11:04;12.87;;;8.20;;
1400;SDS011;46518;48.842;8.926;2022-07-23T05:13:33;8.47;;;7.67;;
1400;SDS011;46518;48.842;8.926;2022-07-23T05:16:05;7.20;;;6.60;;
1400;SDS011;46518;48.842;8.926;2022-07-23T05:18:35;7.80;;;7.13;;
1400;SDS011;46518;48.842;8.926;2022-07-23T05:21:03;7.50;;;6.83;;
1400;SDS011;46518;48.842;8.926;2022-07-23T05:23:33;8.70;;;7.60;;
1400;SDS011;46518;48.842;8.926;2022-07-23T05:26:02;7.27;;;6.67;;
1400;SDS011;46518;48.842;8.926;2022-07-23T05:28:31;7.30;;;6.70;;
1400;SDS011;46518;48.842;8.926;2022-07-23T05:30:59;7.87;;;7.07;;
1400;SDS011;46518;48.842;8.926;2022-07-23T05:33:30;6.83;;;6.33;;
1400;SDS011;46518;48.842;8.926;2022-07-23T05:35:59;7.30;;;6.60;;
1400;SDS011;46518;48.842;8.926;2022-07-23T05:38:31;7.90;;;7.10;;
1400;SDS011;46518;48.842;8.926;2022-07-23T05:41:01;7.77;;;7.00;;
1400;SDS011;46518;48.842;8.926;2022-07-23T05:43:30;8.37;;;7.37;;
1400;SDS011;46518;48.842;8.926;2022-07-23T05:46:05;8.10;;;7.30;;
1400;SDS011;46518;48.842;8.926;2022-07-23T05:48:37;9.00;;;8.30;;
1400;SDS011;46518;48.842;8.926;2022-07-23T05:51:12;9.03;;;8.20;;
1400;SDS011;46518;48.842;8.926;2022-07-23T05:53:40;8.47;;;7.77;;
1400;SDS011;46518;48.842;8.926;2022-07-23T05:56:13;9.47;;;8.67;;
1400;SDS011;46518;48.842;8.926;2022-07-23T05:58:42;7.73;;;7.17;;
1400;SDS011;46518;48.842;8.926;2022-07-23T06:01:12;7.83;;;7.10;;
1400;SDS011;46518;48.842;8.926;2022-07-23T06:04:01;8.40;;;7.70;;
1400;SDS011;46518;48.842;8.926;2022-07-23T06:06:34;8.87;;;7.30;;
1400;SDS011;46518;48.842;8.926;2022-07-23T06:09:03;8.03;;;7.37;;
1400;SDS011;46518;48.842;8.926;2022-07-23T06:11:32;7.53;;;6.77;;
1400;SDS011;46518;48.842;8.926;2022-07-23T06:14:00;7.47;;;6.90;;
1400;SDS011;46518;48.842;8.926;2022-07-23T06:16:43;7.30;;;6.70;;
1400;SDS011;46518;48.842;8.926;2022-07-23T06:19:13;8.40;;;7.60;;
1400;SDS011;46518;48.842;8.926;2022-07-23T06:21:45;9.30;;;8.40;;
1400;SDS011;46518;48.842;8.926;2022-07-23T06:24:16;8.50;;;7.73;;
1400;SDS011;46518;48.842;8.926;2022-07-23T06:26:44;8.53;;;7.73;;
1400;SDS011;46518;48.842;8.926;2022-07-23T06:29:13;8.57;;;7.80;;
1400;SDS011;46518;48.842;8.926;2022-07-23T06:31:42;9.00;;;8.20;;
1400;SDS011;46518;48.842;8.926;2022-07-23T06:34:10;7.80;;;7.10;;
1400;SDS011;46518;48.842;8.926;2022-07-23T06:36:40;7.73;;;7.13;;
1400;SDS011;46518;48.842;8.926;2022-07-23T06:39:08;8.03;;;7.07;;
1400;SDS011;46518;48.842;8.926;2022-07-23T06:41:37;9.83;;;7.57;;
1400;SDS011;46518;48.842;8.926;2022-07-23T06:44:05;9.40;;;8.50;;
1400;SDS011;46518;48.842;8.926;2022-07-23T06:46:34;8.70;;;7.87;;
1400;SDS011;46518;48.842;8.926;2022-07-23T06:49:03;10.53;;;9.33;;
1400;SDS011;46518;48.842;8.926;2022-07-23T06:51:33;10.83;;;9.80;;
1400;SDS011;46518;48.842;8.926;2022-07-23T06:54:03;9.67;;;8.67;;
1400;SDS011;46518;48.842;8.926;2022-07-23T06:56:32;10.50;;;9.50;;
1400;SDS011;46518;48.842;8.926;2022-07-23T06:59:06;10.27;;;9.30;;
1400;SDS011;46518;48.842;8.926;2022-07-23T07:01:34;9.63;;;8.77;;
1400;SDS011;46518;48.842;8.926;2022-07-23T07:04:02;10.53;;;8.70;;
1400;SDS011;46518;48.842;8.926;2022-07-23T07:06:31;9.33;;;8.53;;
1400;SDS011;46518;48.842;8.926;2022-07-23T07:08:59;10.30;;;9.33;;
1400;SDS011;46518;48.842;8.926;2022-07-23T07:11:29;9.50;;;8.60;;
1400;SDS011;46518;48.842;8.926;2022-07-23T07:13:58;10.30;;;9.37;;
1400;SDS011;46518;48.842;8.926;2022-07-23T07:16:26;8.80;;;7.93;;
1400;SDS011;46518;48.842;8.926;2022-07-23T07:18:58;9.27;;;8.37;;
1400;SDS011;46518;48.842;8.926;2022-07-23T07:21:28;9.30;;;8.40;;
1400;SDS011;46518;48.842;8.926;2022-07-23T07:23:56;9.37;;;8.43;;
1400;SDS011;46518;48.842;8.926;2022-07-23T07:26:35;10.40;;;9.50;;
1400;SDS011;46518;48.842;8.926;2022-07-23T07:29:05;11.33;;;8.70;;
1400;SDS011;46518;48.842;8.926;2022-07-23T07:31:34;11.97;;;10.87;;
1400;SDS011;46518;48.842;8.926;2022-07-23T07:34:02;10.10;;;9.20;;
1400;SDS011;46518;48.842;8.926;2022-07-23T07:36:33;9.63;;;8.80;;
1400;SDS011;46518;48.842;8.926;2022-07-23T07:39:04;11.53;;;10.53;;
1400;SDS011;46518;48.842;8.926;2022-07-23T07:41:34;12.00;;;11.00;;
1400;SDS011;46518;48.842;8.926;2022-07-23T07:44:03;11.45;;;10.45;;
1400;SDS011;46518;48.842;8.926;2022-07-23T07:46:32;11.50;;;10.37;;
1400;SDS011;46518;48.842;8.926;2022-07-23T07:49:09;10.98;;;9.98;;
1400;SDS011;46518;48.842;8.926;2022-07-23T07:51:41;11.07;;;10.17;;
1400;SDS011;46518;48.842;8.926;2022-07-23T07:54:11;10.77;;;9.77;;
1400;SDS011;46518;48.842;8.926;2022-07-23T07:56:41;11.83;;;8.80;;
1400;SDS011;46518;48.842;8.926;2022-07-23T07:59:09;9.80;;;9.00;;
1400;SDS011;46518;48.842;8.926;2022-07-23T08:01:38;9.47;;;8.67;;
1400;SDS011;46518;48.842;8.926;2022-07-23T08:04:07;10.15;;;9.20;;
1400;SDS011;46518;48.842;8.926;2022-07-23T08:06:35;10.00;;;9.07;;
1400;SDS011;46518;48.842;8.926;2022-07-23T08:09:04;10.90;;;9.90;;
1400;SDS011;46518;48.842;8.926;2022-07-23T08:11:33;8.93;;;8.20;;
1400;SDS011;46518;48.842;8.926;2022-07-23T08:14:03;9.70;;;8.80;;
1400;SDS011;46518;48.842;8.926;2022-07-23T08:16:31;7.83;;;7.13;;
1400;SDS011;46518;48.842;8.926;2022-07-23T08:19:20;10.13;;;9.20;;
1400;SDS011;46518;48.842;8.926;2022-07-23T08:21:49;8.20;;;7.40;;
1400;SDS011;46518;48.842;8.926;2022-07-23T08:24:17;10.23;;;8.80;;
1400;SDS011;46518;48.842;8.926;2022-07-23T08:26:45;8.87;;;8.10;;
1400;SDS011;46518;48.842;8.926;2022-07-23T08:29:15;7.53;;;6.87;;
1400;SDS011;46518;48.842;8.926;2022-07-23T08:31:48;8.33;;;7.53;;
1400;SDS011;46518;48.842;8.926;2022-07-23T08:34:16;7.43;;;6.73;;
1400;SDS011;46518;48.842;8.926;2022-07-23T08:36:45;7.00;;;6.40;;
1400;SDS011;46518;48.842;8.926;2022-07-23T08:39:13;6.63;;;6.13;;
1400;SDS011;46518;48.842;8.926;2022-07-23T08:41:41;7.30;;;6.70;;
1400;SDS011;46518;48.842;8.926;2022-07-23T08:44:10;8.30;;;7.60;;
1400;SDS011;46518;48.842;8.926;2022-07-23T08:46:41;7.80;;;7.10;;
1400;SDS011;46518;48.842;8.926;2022-07-23T08:49:11;8.57;;;7.43;;
1400;SDS011;46518;48.842;8.926;2022-07-23T08:51:41;7.40;;;6.80;;
1400;SDS011;46518;48.842;8.926;2022-07-23T08:54:09;7.73;;;7.03;;
1400;SDS011;46518;48.842;8.926;2022-07-23T08:56:38;7.63;;;6.93;;
1400;SDS011;46518;48.842;8.926;2022-07-23T08:59:08;8.03;;;7.23;;
1400;SDS011;46518;48.842;8.926;2022-07-23T09:01:40;7.90;;;7.30;;
1400;SDS011;46518;48.842;8.926;2022-07-23T09:04:11;9.00;;;8.20;;
1400;SDS011;46518;48.842;8.926;2022-07-23T09:06:39;7.93;;;7.33;;
1400;SDS011;46518;48.842;8.926;2022-07-23T09:09:16;7.73;;;7.13;;
1400;SDS011;46518;48.842;8.926;2022-07-23T09:11:45;8.50;;;7.73;;
1400;SDS011;46518;48.842;8.926;2022-07-23T09:14:14;7.43;;;6.83;;
1400;SDS011;46518;48.842;8.926;2022-07-23T09:16:44;8.00;;;7.40;;
1400;SDS011;46518;48.842;8.926;2022-07-23T09:19:13;7.77;;;7.13;;
1400;SDS011;46518;48.842;8.926;2022-07-23T09:21:41;7.67;;;7.07;;
1400;SDS011;46518;48.842;8.926;2022-07-23T09:24:10;7.80;;;7.20;;
1400;SDS011;46518;48.842;8.926;2022-07-23T09:26:42;7.90;;;7.23;;
1400;SDS011;46518;48.842;8.926;2022-07-23T09:29:12;8.23;;;7.53;;
1400;SDS011;46518;48.842;8.926;2022-07-23T09:31:45;8.73;;;8.00;;
1400;SDS011;46518;48.842;8.926;2022-07-23T09:34:16;9.57;;;8.67;;
1400;SDS011;46518;48.842;8.926;2022-07-23T09:36:49;8.67;;;7.80;;
1400;SDS011;46518;48.842;8.926;2022-07-23T09:39:25;8.57;;;7.87;;
1400;SDS011;46518;48.842;8.926;2022-07-23T09:41:57;7.37;;;6.77;;
1400;SDS011;46518;48.842;8.926;2022-07-23T09:44:26;8.03;;;7.33;;
1400;SDS011;46518;48.842;8.926;2022-07-23T09:46:58;7.90;;;7.17;;
1400;SDS011;46518;48.842;8.926;2022-07-23T09:49:28;8.20;;;7.40;;
1400;SDS011;46518;48.842;8.926;2022-07-23T09:51:57;8.10;;;7.27;;
1400;SDS011;46518;48.842;8.926;2022-07-23T09:54:28;8.57;;;7.97;;
1400;SDS011;46518;48.842;8.926;2022-07-23T09:56:59;8.30;;;7.50;;
1400;SDS011;46518;48.842;8.926;2022-07-23T09:59:32;8.70;;;7.90;;
1400;SDS011;46518;48.842;8.926;2022-07-23T10:02:04;9.77;;;8.70;;
1400;SDS011;46518;48.842;8.926;2022-07-23T10:04:43;8.93;;;8.23;;
1400;SDS011;46518;48.842;8.926;2022-07-23T10:07:41;9.33;;;8.53;;
1400;SDS011;46518;48.842;8.926;2022-07-23T10:10:35;8.90;;;8.07;;
1400;SDS011;46518;48.842;8.926;2022-07-23T10:13:12;8.93;;;8.03;;
1400;SDS011;46518;48.842;8.926;2022-07-23T10:16:00;9.00;;;8.20;;
1400;SDS011;46518;48.842;8.926;2022-07-23T10:18:31;8.30;;;7.60;;
1400;SDS011;46518;48.842;8.926;2022-07-23T10:20:59;8.80;;;7.93;;
1400;SDS011;46518;48.842;8.926;2022-07-23T10:23:33;7.93;;;7.33;;
1400;SDS011;46518;48.842;8.926;2022-07-23T10:26:09;8.00;;;7.23;;
1400;SDS011;46518;48.842;8.926;2022-07-23T10:28:48;8.40;;;7.77;;
1400;SDS011;46518;48.842;8.926;2022-07-23T10:31:31;8.20;;;7.50;;
1400;SDS011;46518;48.842;8.926;2022-07-23T10:34:29;8.17;;;7.47;;
1400;SDS011;46518;48.842;8.926;2022-07-23T10:37:07;7.70;;;7.00;;
1400;SDS011;46518;48.842;8.926;2022-07-23T10:39:47;8.60;;;7.80;;
1400;SDS011;46518;48.842;8.926;2022-07-23T10:42:16;8.30;;;7.60;;
1400;SDS011;46518;48.842;8.926;2022-07-23T10:44:48;7.53;;;6.97;;
1400;SDS011;46518;48.842;8.926;2022-07-23T10:47:21;8.90;;;8.10;;
1400;SDS011;46518;48.842;8.926;2022-07-23T10:50:18;8.97;;;8.17;;
1400;SDS011;46518;48.842;8.926;2022-07-23T10:55:46;9.03;;;8.20;;
1400;SDS011;46518;48.842;8.926;2022-07-23T10:58:19;8.60;;;7.77;;
1400;SDS011;46518;48.842;8.926;2022-07-23T11:00:49;9.20;;;8.40;;
1400;SDS011;46518;48.842;8.926;2022-07-23T11:06:06;8.57;;;7.97;;
1400;SDS011;46518;48.842;8.926;2022-07-23T11:08:34;9.77;;;8.97;;
1400;SDS011;46518;48.842;8.926;2022-07-23T11:11:09;8.27;;;7.50;;
1400;SDS011;46518;48.842;8.926;2022-07-23T11:13:43;8.67;;;8.00;;
1400;SDS011;46518;48.842;8.926;2022-07-23T11:16:18;8.50;;;7.80;;
1400;SDS011;46518;48.842;8.926;2022-07-23T11:19:04;9.20;;;7.43;;
1400;SDS011;46518;48.842;8.926;2022-07-23T11:21:48;8.60;;;7.67;;
1400;SDS011;46518;48.842;8.926;2022-07-23T11:24:21;8.70;;;7.77;;
1400;SDS011;46518;48.842;8.926;2022-07-23T11:26:52;8.83;;;8.13;;
1400;SDS011;46518;48.842;8.926;2022-07-23T11:38:02;10.43;;;8.77;;
1400;SDS011;46518;48.842;8.926;2022-07-23T11:40:32;10.50;;;9.40;;
1400;SDS011;46518;48.842;8.926;2022-07-23T11:43:02;9.10;;;8.23;;
1400;SDS011;46518;48.842;8.926;2022-07-23T11:45:33;10.20;;;9.30;;
1400;SDS011;46518;48.842;8.926;2022-07-23T11:48:04;9.90;;;8.90;;
1400;SDS011;46518;48.842;8.926;2022-07-23T11:50:34;10.23;;;9.43;;
1400;SDS011;46518;48.842;8.926;2022-07-23T11:53:04;10.17;;;9.27;;
1400;SDS011;46518;48.842;8.926;2022-07-23T11:55:32;9.50;;;8.60;;
1400;SDS011;46518;48.842;8.926;2022-07-23T11:58:00;10.20;;;9.30;;
1400;SDS011;46518;48.842;8.926;2022-07-23T12:00:30;9.50;;;8.70;;
1400;SDS011;46518;48.842;8.926;2022-07-23T12:03:06;11.17;;;10.23;;
1400;SDS011;46518;48.842;8.926;2022-07-23T12:05:35;8.70;;;8.00;;
1400;SDS011;46518;48.842;8.926;2022-07-23T12:08:07;9.50;;;8.60;;
1400;SDS011;46518;48.842;8.926;2022-07-23T12:10:37;9.40;;;8.70;;
1400;SDS011;46518;48.842;8.926;2022-07-23T12:13:09;10.67;;;9.67;;
1400;SDS011;46518;48.842;8.926;2022-07-23T12:15:39;9.93;;;9.03;;
1400;SDS011;46518;48.842;8.926;2022-07-23T12:18:13;9.80;;;8.90;;
1400;SDS011;46518;48.842;8.926;2022-07-23T12:20:43;9.33;;;8.43;;
1400;SDS011;46518;48.842;8.926;2022-07-23T12:23:14;9.30;;;8.50;;
1400;SDS011;46518;48.842;8.926;2022-07-23T12:25:47;8.80;;;8.10;;
1400;SDS011;46518;48.842;8.926;2022-07-23T12:28:17;9.53;;;8.73;;
1400;SDS011;46518;48.842;8.926;2022-07-23T12:30:47;8.23;;;7.60;;
1400;SDS011;46518;48.842;8.926;2022-07-23T12:33:21;9.73;;;8.83;;
1400;SDS011;46518;48.842;8.926;2022-07-23T12:35:50;9.47;;;8.73;;
1400;SDS011;46518;48.842;8.926;2022-07-23T12:38:23;8.20;;;7.60;;
1400;SDS011;46518;48.842;8.926;2022-07-23T12:40:53;8.73;;;8.03;;
1400;SDS011;46518;48.842;8.926;2022-07-23T12:43:22;8.90;;;8.20;;
1400;SDS011;46518;48.842;8.926;2022-07-23T12:45:53;8.87;;;8.07;;
1400;SDS011;46518;48.842;8.926;2022-07-23T12:48:24;9.70;;;8.90;;
1400;SDS011;46518;48.842;8.926;2022-07-23T12:50:57;9.00;;;8.23;;
1400;SDS011;46518;48.842;8.926;2022-07-23T12:53:29;9.80;;;8.90;;
1400;SDS011;46518;48.842;8.926;2022-07-23T12:55:59;9.47;;;8.60;;
1400;SDS011;46518;48.842;8.926;2022-07-23T12:58:42;9.20;;;8.50;;
1400;SDS011;46518;48.842;8.926;2022-07-23T13:01:24;9.93;;;9.03;;
1400;SDS011;46518;48.842;8.926;2022-07-23T13:03:54;9.30;;;8.40;;
1400;SDS011;46518;48.842;8.926;2022-07-23T13:06:26;9.27;;;8.50;;
1400;SDS011;46518;48.842;8.926;2022-07-23T13:08:58;9.47;;;8.57;;
1400;SDS011;46518;48.842;8.926;2022-07-23T13:11:28;9.97;;;9.17;;
1400;SDS011;46518;48.842;8.926;2022-07-23T13:13:57;9.40;;;8.50;;
1400;SDS011;46518;48.842;8.926;2022-07-23T13:16:27;9.67;;;8.90;;
1400;SDS011;46518;48.842;8.926;2022-07-23T13:18:56;9.37;;;8.57;;
1400;SDS011;46518;48.842;8.926;2022-07-23T13:21:27;9.97;;;9.07;;
1400;SDS011;46518;48.842;8.926;2022-07-23T13:23:57;10.53;;;9.40;;
1400;SDS011;46518;48.842;8.926;2022-07-23T13:26:26;10.63;;;9.60;;
1400;SDS011;46518;48.842;8.926;2022-07-23T13:28:55;10.00;;;9.13;;
1400;SDS011;46518;48.842;8.926;2022-07-23T13:31:23;9.37;;;8.53;;
1400;SDS011;46518;48.842;8.926;2022-07-23T13:33:53;9.27;;;8.57;;
1400;SDS011;46518;48.842;8.926;2022-07-23T13:36:23;9.67;;;8.80;;
1400;SDS011;46518;48.842;8.926;2022-07-23T13:38:52;9.03;;;8.23;;
1400;SDS011;46518;48.842;8.926;2022-07-23T13:41:26;8.97;;;8.00;;
1400;SDS011;46518;48.842;8.926;2022-07-23T13:43:59;9.70;;;8.80;;
1400;SDS011;46518;48.842;8.926;2022-07-23T13:46:32;8.67;;;7.97;;
1400;SDS011;46518;48.842;8.926;2022-07-23T13:49:05;9.40;;;8.60;;
1400;SDS011;46518;48.842;8.926;2022-07-23T13:51:37;9.83;;;9.07;;
1400;SDS011;46518;48.842;8.926;2022-07-23T13:54:06;9.20;;;8.40;;
1400;SDS011;46518;48.842;8.926;2022-07-23T13:56:37;9.97;;;9.17;;
1400;SDS011;46518;48.842;8.926;2022-07-23T13:59:10;9.40;;;8.50;;
1400;SDS011;46518;48.842;8.926;2022-07-23T14:01:44;10.20;;;9.37;;
1400;SDS011;46518;48.842;8.926;2022-07-23T14:04:38;9.63;;;8.83;;
1400;SDS011;46518;48.842;8.926;2022-07-23T14:07:08;8.70;;;8.10;;
1400;SDS011;46518;48.842;8.926;2022-07-23T14:09:38;10.30;;;9.50;;
1400;SDS011;46518;48.842;8.926;2022-07-23T14:12:10;9.90;;;9.07;;
1400;SDS011;46518;48.842;8.926;2022-07-23T14:14:43;10.30;;;9.50;;
1400;SDS011;46518;48.842;8.926;2022-07-23T14:17:12;10.10;;;9.10;;
1400;SDS011;46518;48.842;8.926;2022-07-23T14:19:44;9.77;;;8.87;;
1400;SDS011;46518;48.842;8.926;2022-07-23T14:22:13;10.83;;;10.03;;
1400;SDS011;46518;48.842;8.926;2022-07-23T14:24:42;10.67;;;9.67;;
1400;SDS011;46518;48.842;8.926;2022-07-23T14:27:19;9.37;;;8.63;;
1400;SDS011;46518;48.842;8.926;2022-07-23T14:29:48;9.30;;;8.53;;
1400;SDS011;46518;48.842;8.926;2022-07-23T14:32:19;10.37;;;9.60;;
1400;SDS011;46518;48.842;8.926;2022-07-23T14:34:48;9.90;;;9.00;;
1400;SDS011;46518;48.842;8.926;2022-07-23T14:37:18;11.10;;;10.20;;
1400;SDS011;46518;48.842;8.926;2022-07-23T14:40:13;9.93;;;9.07;;
1400;SDS011;46518;48.842;8.926;2022-07-23T14:42:48;9.97;;;9.13;;
1400;SDS011;46518;48.842;8.926;2022-07-23T14:45:24;9.97;;;9.20;;
1400;SDS011;46518;48.842;8.926;2022-07-23T14:47:59;10.00;;;9.20;;
1400;SDS011;46518;48.842;8.926;2022-07-23T14:50:29;10.67;;;9.57;;
1400;SDS011;46518;48.842;8.926;2022-07-23T14:52:57;10.60;;;9.80;;
1400;SDS011;46518;48.842;8.926;2022-07-23T14:55:25;9.73;;;9.00;;
1400;SDS011;46518;48.842;8.926;2022-07-23T14:57:54;10.07;;;9.27;;
1400;SDS011;46518;48.842;8.926;2022-07-23T15:00:23;9.00;;;8.20;;
1400;SDS011;46518;48.842;8.926;2022-07-23T15:02:51;11.03;;;10.00;;
1400;SDS011;46518;48.842;8.926;2022-07-23T15:05:25;10.20;;;9.40;;
1400;SDS011;46518;48.842;8.926;2022-07-23T15:07:55;10.30;;;9.40;;
1400;SDS011;46518;48.842;8.926;2022-07-23T15:10:24;10.00;;;9.30;;
1400;SDS011;46518;48.842;8.926;2022-07-23T15:12:52;9.50;;;8.53;;
1400;SDS011;46518;48.842;8.926;2022-07-23T15:15:23;9.67;;;8.87;;
1400;SDS011;46518;48.842;8.926;2022-07-23T15:17:52;10.07;;;9.13;;
1400;SDS011;46518;48.842;8.926;2022-07-23T15:20:20;10.60;;;9.70;;
1400;SDS011;46518;48.842;8.926;2022-07-23T15:23:03;11.47;;;10.50;;
1400;SDS011;46518;48.842;8.926;2022-07-23T15:25:34;11.93;;;10.93;;
1400;SDS011;46518;48.842;8.926;2022-07-23T15:28:04;9.83;;;9.13;;
1400;SDS011;46518;48.842;8.926;2022-07-23T15:30:36;10.80;;;9.80;;
1400;SDS011;46518;48.842;8.926;2022-07-23T15:33:04;9.90;;;9.10;;
1400;SDS011;46518;48.842;8.926;2022-07-23T15:35:45;11.47;;;10.57;;